sensor_id;sensor_type;location;lat;lon;timestamp;P1;durP1;ratioP1;P2;durP2;ratioP2
80320;SDS011;69633;47.066;15.450;2023-05-07T00:00:16;10.43;;;6.50;;
80320;SDS011;69633;47.066;15.450;2023-05-07T00:02:43;7.63;;;5.28;;
80320;SDS011;69633;47.066;15.450;2023-05-07T00:05:09;9.77;;;5.63;;
80320;SDS011;69633;47.066;15.450;2023-05-07T00:07:35;8.77;;;5.68;;
80320;SDS011;69633;47.066;15.450;2023-05-07T00:10:01;10.75;;;6.57;;
80320;SDS011;69633;47.066;15.450;2023-05-07T00:12:27;9.50;;;5.95;;
80320;SDS011;69633;47.066;15.450;2023-05-07T00:14:52;7.80;;;5.57;;
80320;SDS011;69633;47.066;15.450;2023-05-07T00:17:18;8.57;;;5.22;;
80320;SDS011;69633;47.066;15.450;2023-05-07T00:19:43;7.97;;;4.97;;
80320;SDS011;69633;47.066;15.450;2023-05-07T00:22:09;9.05;;;5.68;;
80320;SDS011;69633;47.066;15.450;2023-05-07T00:24:35;8.15;;;5.22;;
80320;SDS011;69633;47.066;15.450;2023-05-07T00:27:00;7.90;;;5.18;;
80320;SDS011;69633;47.066;15.450;2023-05-07T00:29:26;10.60;;;5.40;;
80320;SDS011;69633;47.066;15.450;2023-05-07T00:31:52;10.30;;;5.30;;
80320;SDS011;69633;47.066;15.450;2023-05-07T00:34:19;10.88;;;6.03;;
80320;SDS011;69633;47.066;15.450;2023-05-07T00:36:45;7.57;;;4.85;;
80320;SDS011;69633;47.066;15.450;2023-05-07T00:39:10;9.95;;;5.00;;
80320;SDS011;69633;47.066;15.450;2023-05-07T00:41:36;8.02;;;5.00;;
80320;SDS011;69633;47.066;15.450;2023-05-07T00:44:03;7.88;;;4.78;;
80320;SDS011;69633;47.066;15.450;2023-05-07T00:46:29;9.40;;;5.63;;
80320;SDS011;69633;47.066;15.450;2023-05-07T00:48:56;7.72;;;5.22;;
80320;SDS011;69633;47.066;15.450;2023-05-07T00:51:22;9.05;;;6.25;;
80320;SDS011;69633;47.066;15.450;2023-05-07T00:53:50;9.10;;;5.70;;
80320;SDS011;69633;47.066;15.450;2023-05-07T00:56:15;9.20;;;5.90;;
80320;SDS011;69633;47.066;15.450;2023-05-07T00:58:41;8.43;;;5.72;;
80320;SDS011;69633;47.066;15.450;2023-05-07T01:01:07;9.35;;;5.68;;
80320;SDS011;69633;47.066;15.450;2023-05-07T01:03:33;8.05;;;5.47;;
80320;SDS011;69633;47.066;15.450;2023-05-07T01:05:58;8.75;;;5.55;;
80320;SDS011;69633;47.066;15.450;2023-05-07T01:08:25;11.02;;;4.82;;
80320;SDS011;69633;47.066;15.450;2023-05-07T01:10:53;7.55;;;4.68;;
80320;SDS011;69633;47.066;15.450;2023-05-07T01:13:20;10.60;;;5.57;;
80320;SDS011;69633;47.066;15.450;2023-05-07T01:15:46;11.55;;;5.28;;
80320;SDS011;69633;47.066;15.450;2023-05-07T01:18:11;6.30;;;4.28;;
80320;SDS011;69633;47.066;15.450;2023-05-07T01:20:37;9.18;;;4.60;;
80320;SDS011;69633;47.066;15.450;2023-05-07T01:23:03;6.78;;;3.78;;
80320;SDS011;69633;47.066;15.450;2023-05-07T01:25:28;7.18;;;4.35;;
80320;SDS011;69633;47.066;15.450;2023-05-07T01:27:55;5.75;;;3.90;;
80320;SDS011;69633;47.066;15.450;2023-05-07T01:30:21;7.45;;;3.85;;
80320;SDS011;69633;47.066;15.450;2023-05-07T01:32:57;7.00;;;3.60;;
80320;SDS011;69633;47.066;15.450;2023-05-07T01:35:29;5.57;;;3.75;;
80320;SDS011;69633;47.066;15.450;2023-05-07T01:38:00;7.22;;;3.60;;
80320;SDS011;69633;47.066;15.450;2023-05-07T01:40:27;5.72;;;3.47;;
80320;SDS011;69633;47.066;15.450;2023-05-07T01:42:53;4.78;;;3.33;;
80320;SDS011;69633;47.066;15.450;2023-05-07T01:45:19;7.65;;;3.80;;
80320;SDS011;69633;47.066;15.450;2023-05-07T01:47:45;7.20;;;3.67;;
80320;SDS011;69633;47.066;15.450;2023-05-07T01:50:11;5.25;;;3.55;;
80320;SDS011;69633;47.066;15.450;2023-05-07T01:52:37;7.22;;;3.97;;
80320;SDS011;69633;47.066;15.450;2023-05-07T01:55:04;6.57;;;4.00;;
80320;SDS011;69633;47.066;15.450;2023-05-07T01:57:30;6.93;;;3.97;;
80320;SDS011;69633;47.066;15.450;2023-05-07T01:59:55;7.65;;;3.90;;
80320;SDS011;69633;47.066;15.450;2023-05-07T02:02:21;6.10;;;3.85;;
80320;SDS011;69633;47.066;15.450;2023-05-07T02:04:46;6.88;;;3.70;;
80320;SDS011;69633;47.066;15.450;2023-05-07T02:07:12;5.68;;;3.75;;
80320;SDS011;69633;47.066;15.450;2023-05-07T02:09:37;7.95;;;3.92;;
80320;SDS011;69633;47.066;15.450;2023-05-07T02:12:03;8.35;;;4.03;;
80320;SDS011;69633;47.066;15.450;2023-05-07T02:14:28;6.20;;;3.67;;
80320;SDS011;69633;47.066;15.450;2023-05-07T02:16:54;6.32;;;4.07;;
80320;SDS011;69633;47.066;15.450;2023-05-07T02:19:19;7.05;;;3.90;;
80320;SDS011;69633;47.066;15.450;2023-05-07T02:21:46;7.88;;;3.88;;
80320;SDS011;69633;47.066;15.450;2023-05-07T02:24:12;5.72;;;3.42;;
80320;SDS011;69633;47.066;15.450;2023-05-07T02:26:39;6.57;;;3.40;;
80320;SDS011;69633;47.066;15.450;2023-05-07T02:29:05;5.35;;;3.42;;
80320;SDS011;69633;47.066;15.450;2023-05-07T02:31:31;7.85;;;3.40;;
80320;SDS011;69633;47.066;15.450;2023-05-07T02:33:58;6.22;;;3.72;;
80320;SDS011;69633;47.066;15.450;2023-05-07T02:36:24;6.45;;;3.83;;
80320;SDS011;69633;47.066;15.450;2023-05-07T02:38:49;5.20;;;3.33;;
80320;SDS011;69633;47.066;15.450;2023-05-07T02:41:15;6.28;;;3.78;;
80320;SDS011;69633;47.066;15.450;2023-05-07T02:43:40;6.20;;;4.03;;
80320;SDS011;69633;47.066;15.450;2023-05-07T02:46:07;6.40;;;3.53;;
80320;SDS011;69633;47.066;15.450;2023-05-07T02:48:35;6.10;;;3.83;;
80320;SDS011;69633;47.066;15.450;2023-05-07T02:51:02;7.80;;;3.22;;
80320;SDS011;69633;47.066;15.450;2023-05-07T02:53:28;7.13;;;3.70;;
80320;SDS011;69633;47.066;15.450;2023-05-07T02:55:57;8.15;;;3.97;;
80320;SDS011;69633;47.066;15.450;2023-05-07T02:58:24;5.90;;;3.70;;
80320;SDS011;69633;47.066;15.450;2023-05-07T03:00:50;6.65;;;3.65;;
80320;SDS011;69633;47.066;15.450;2023-05-07T03:03:15;6.20;;;3.80;;
80320;SDS011;69633;47.066;15.450;2023-05-07T03:05:41;8.13;;;3.67;;
80320;SDS011;69633;47.066;15.450;2023-05-07T03:08:07;7.00;;;3.92;;
80320;SDS011;69633;47.066;15.450;2023-05-07T03:10:33;5.95;;;3.65;;
80320;SDS011;69633;47.066;15.450;2023-05-07T03:12:58;6.13;;;3.78;;
80320;SDS011;69633;47.066;15.450;2023-05-07T03:15:23;7.07;;;3.63;;
80320;SDS011;69633;47.066;15.450;2023-05-07T03:17:49;7.93;;;3.78;;
80320;SDS011;69633;47.066;15.450;2023-05-07T03:20:14;7.00;;;3.70;;
80320;SDS011;69633;47.066;15.450;2023-05-07T03:22:40;6.85;;;3.70;;
80320;SDS011;69633;47.066;15.450;2023-05-07T03:25:06;6.05;;;3.63;;
80320;SDS011;69633;47.066;15.450;2023-05-07T03:27:32;7.97;;;3.65;;
80320;SDS011;69633;47.066;15.450;2023-05-07T03:29:58;5.53;;;3.60;;
80320;SDS011;69633;47.066;15.450;2023-05-07T03:32:23;7.43;;;3.55;;
80320;SDS011;69633;47.066;15.450;2023-05-07T03:34:49;7.88;;;3.38;;
80320;SDS011;69633;47.066;15.450;2023-05-07T03:37:14;7.25;;;3.63;;
80320;SDS011;69633;47.066;15.450;2023-05-07T03:39:39;14.70;;;4.00;;
80320;SDS011;69633;47.066;15.450;2023-05-07T03:42:05;8.13;;;3.65;;
80320;SDS011;69633;47.066;15.450;2023-05-07T03:44:30;6.50;;;3.85;;
80320;SDS011;69633;47.066;15.450;2023-05-07T03:46:56;7.50;;;3.60;;
80320;SDS011;69633;47.066;15.450;2023-05-07T03:49:21;5.93;;;3.50;;
80320;SDS011;69633;47.066;15.450;2023-05-07T03:51:46;7.28;;;4.13;;
80320;SDS011;69633;47.066;15.450;2023-05-07T03:54:12;6.88;;;3.70;;
80320;SDS011;69633;47.066;15.450;2023-05-07T03:56:37;6.30;;;3.40;;
80320;SDS011;69633;47.066;15.450;2023-05-07T03:59:03;6.82;;;3.67;;
80320;SDS011;69633;47.066;15.450;2023-05-07T04:01:28;6.50;;;3.50;;
80320;SDS011;69633;47.066;15.450;2023-05-07T04:03:54;5.47;;;3.60;;
80320;SDS011;69633;47.066;15.450;2023-05-07T04:06:20;4.85;;;3.35;;
80320;SDS011;69633;47.066;15.450;2023-05-07T04:08:45;7.35;;;3.80;;
80320;SDS011;69633;47.066;15.450;2023-05-07T04:11:11;7.32;;;4.07;;
80320;SDS011;69633;47.066;15.450;2023-05-07T04:13:36;7.65;;;4.30;;
80320;SDS011;69633;47.066;15.450;2023-05-07T04:16:02;7.07;;;3.72;;
80320;SDS011;69633;47.066;15.450;2023-05-07T04:18:29;6.63;;;3.97;;
80320;SDS011;69633;47.066;15.450;2023-05-07T04:20:54;7.72;;;3.88;;
80320;SDS011;69633;47.066;15.450;2023-05-07T04:23:20;7.72;;;4.15;;
80320;SDS011;69633;47.066;15.450;2023-05-07T04:25:46;6.00;;;4.00;;
80320;SDS011;69633;47.066;15.450;2023-05-07T04:28:11;6.25;;;3.83;;
80320;SDS011;69633;47.066;15.450;2023-05-07T04:30:37;6.50;;;3.75;;
80320;SDS011;69633;47.066;15.450;2023-05-07T04:33:03;7.28;;;4.32;;
80320;SDS011;69633;47.066;15.450;2023-05-07T04:35:29;5.65;;;3.58;;
80320;SDS011;69633;47.066;15.450;2023-05-07T04:37:54;7.97;;;3.70;;
80320;SDS011;69633;47.066;15.450;2023-05-07T04:40:20;5.28;;;3.05;;
80320;SDS011;69633;47.066;15.450;2023-05-07T04:42:46;5.20;;;3.22;;
80320;SDS011;69633;47.066;15.450;2023-05-07T04:45:11;6.38;;;3.40;;
80320;SDS011;69633;47.066;15.450;2023-05-07T04:47:37;7.20;;;3.85;;
80320;SDS011;69633;47.066;15.450;2023-05-07T04:50:03;6.15;;;3.63;;
80320;SDS011;69633;47.066;15.450;2023-05-07T04:52:29;5.70;;;3.63;;
80320;SDS011;69633;47.066;15.450;2023-05-07T04:54:55;6.00;;;3.47;;
80320;SDS011;69633;47.066;15.450;2023-05-07T04:57:20;7.40;;;3.85;;
80320;SDS011;69633;47.066;15.450;2023-05-07T04:59:46;7.50;;;4.07;;
80320;SDS011;69633;47.066;15.450;2023-05-07T05:02:11;6.53;;;3.90;;
80320;SDS011;69633;47.066;15.450;2023-05-07T05:04:37;8.93;;;3.80;;
80320;SDS011;69633;47.066;15.450;2023-05-07T05:07:02;5.20;;;3.40;;
80320;SDS011;69633;47.066;15.450;2023-05-07T05:09:30;7.25;;;3.42;;
80320;SDS011;69633;47.066;15.450;2023-05-07T05:11:56;5.00;;;3.70;;
80320;SDS011;69633;47.066;15.450;2023-05-07T05:14:21;6.07;;;3.92;;
80320;SDS011;69633;47.066;15.450;2023-05-07T05:16:47;6.25;;;3.40;;
80320;SDS011;69633;47.066;15.450;2023-05-07T05:19:12;5.72;;;3.17;;
80320;SDS011;69633;47.066;15.450;2023-05-07T05:21:37;6.22;;;3.20;;
80320;SDS011;69633;47.066;15.450;2023-05-07T05:24:03;5.15;;;3.17;;
80320;SDS011;69633;47.066;15.450;2023-05-07T05:26:28;7.05;;;3.10;;
80320;SDS011;69633;47.066;15.450;2023-05-07T05:28:54;5.35;;;3.15;;
80320;SDS011;69633;47.066;15.450;2023-05-07T05:31:19;5.38;;;2.75;;
80320;SDS011;69633;47.066;15.450;2023-05-07T05:33:45;5.35;;;2.80;;
80320;SDS011;69633;47.066;15.450;2023-05-07T05:36:10;5.13;;;3.05;;
80320;SDS011;69633;47.066;15.450;2023-05-07T05:38:37;6.50;;;3.15;;
80320;SDS011;69633;47.066;15.450;2023-05-07T05:41:02;3.95;;;3.03;;
80320;SDS011;69633;47.066;15.450;2023-05-07T05:43:28;7.25;;;3.60;;
80320;SDS011;69633;47.066;15.450;2023-05-07T05:45:53;5.53;;;2.92;;
80320;SDS011;69633;47.066;15.450;2023-05-07T05:48:20;5.82;;;3.10;;
80320;SDS011;69633;47.066;15.450;2023-05-07T05:50:45;4.03;;;2.63;;
80320;SDS011;69633;47.066;15.450;2023-05-07T05:53:11;5.35;;;3.33;;
80320;SDS011;69633;47.066;15.450;2023-05-07T05:55:37;7.10;;;3.10;;
80320;SDS011;69633;47.066;15.450;2023-05-07T05:58:02;3.63;;;2.55;;
80320;SDS011;69633;47.066;15.450;2023-05-07T06:00:28;7.72;;;3.42;;
80320;SDS011;69633;47.066;15.450;2023-05-07T06:02:54;4.18;;;2.78;;
80320;SDS011;69633;47.066;15.450;2023-05-07T06:05:19;4.95;;;2.58;;
80320;SDS011;69633;47.066;15.450;2023-05-07T06:07:45;6.10;;;2.65;;
80320;SDS011;69633;47.066;15.450;2023-05-07T06:10:10;5.05;;;3.03;;
80320;SDS011;69633;47.066;15.450;2023-05-07T06:12:36;7.30;;;3.00;;
80320;SDS011;69633;47.066;15.450;2023-05-07T06:15:01;5.90;;;2.65;;
80320;SDS011;69633;47.066;15.450;2023-05-07T06:17:27;5.85;;;2.90;;
80320;SDS011;69633;47.066;15.450;2023-05-07T06:19:53;4.22;;;2.83;;
80320;SDS011;69633;47.066;15.450;2023-05-07T06:22:18;6.60;;;3.42;;
80320;SDS011;69633;47.066;15.450;2023-05-07T06:24:44;4.60;;;2.55;;
80320;SDS011;69633;47.066;15.450;2023-05-07T06:27:10;4.72;;;2.65;;
80320;SDS011;69633;47.066;15.450;2023-05-07T06:29:35;6.18;;;3.17;;
80320;SDS011;69633;47.066;15.450;2023-05-07T06:32:07;4.00;;;2.38;;
80320;SDS011;69633;47.066;15.450;2023-05-07T06:34:36;4.07;;;2.58;;
80320;SDS011;69633;47.066;15.450;2023-05-07T06:37:02;3.08;;;2.03;;
80320;SDS011;69633;47.066;15.450;2023-05-07T06:39:27;4.55;;;2.30;;
80320;SDS011;69633;47.066;15.450;2023-05-07T06:41:53;4.07;;;2.38;;
80320;SDS011;69633;47.066;15.450;2023-05-07T06:44:19;3.78;;;2.22;;
80320;SDS011;69633;47.066;15.450;2023-05-07T06:46:44;4.82;;;2.28;;
80320;SDS011;69633;47.066;15.450;2023-05-07T06:49:12;4.20;;;2.40;;
80320;SDS011;69633;47.066;15.450;2023-05-07T06:51:38;6.13;;;2.35;;
80320;SDS011;69633;47.066;15.450;2023-05-07T06:54:03;4.28;;;2.35;;
80320;SDS011;69633;47.066;15.450;2023-05-07T06:56:29;4.25;;;2.40;;
80320;SDS011;69633;47.066;15.450;2023-05-07T06:58:59;5.07;;;2.47;;
80320;SDS011;69633;47.066;15.450;2023-05-07T07:01:25;4.43;;;2.10;;
80320;SDS011;69633;47.066;15.450;2023-05-07T07:03:50;3.28;;;2.22;;
80320;SDS011;69633;47.066;15.450;2023-05-07T07:06:16;4.28;;;2.90;;
80320;SDS011;69633;47.066;15.450;2023-05-07T07:08:42;5.18;;;2.60;;
80320;SDS011;69633;47.066;15.450;2023-05-07T07:11:07;3.92;;;2.50;;
80320;SDS011;69633;47.066;15.450;2023-05-07T07:13:33;7.53;;;3.42;;
80320;SDS011;69633;47.066;15.450;2023-05-07T07:15:59;4.75;;;2.78;;
80320;SDS011;69633;47.066;15.450;2023-05-07T07:18:25;3.47;;;2.33;;
80320;SDS011;69633;47.066;15.450;2023-05-07T07:20:50;3.90;;;2.80;;
80320;SDS011;69633;47.066;15.450;2023-05-07T07:23:16;6.60;;;2.38;;
80320;SDS011;69633;47.066;15.450;2023-05-07T07:25:41;6.80;;;2.72;;
80320;SDS011;69633;47.066;15.450;2023-05-07T07:28:07;4.82;;;2.90;;
80320;SDS011;69633;47.066;15.450;2023-05-07T07:30:32;6.40;;;2.97;;
80320;SDS011;69633;47.066;15.450;2023-05-07T07:32:58;3.83;;;2.80;;
80320;SDS011;69633;47.066;15.450;2023-05-07T07:37:56;5.50;;;2.90;;
80320;SDS011;69633;47.066;15.450;2023-05-07T07:40:22;5.15;;;3.15;;
80320;SDS011;69633;47.066;15.450;2023-05-07T07:42:48;3.95;;;2.88;;
80320;SDS011;69633;47.066;15.450;2023-05-07T07:45:13;4.72;;;3.13;;
80320;SDS011;69633;47.066;15.450;2023-05-07T07:47:39;12.18;;;3.53;;
80320;SDS011;69633;47.066;15.450;2023-05-07T07:50:05;4.90;;;3.17;;
80320;SDS011;69633;47.066;15.450;2023-05-07T07:52:32;4.85;;;3.00;;
80320;SDS011;69633;47.066;15.450;2023-05-07T07:54:57;5.45;;;3.28;;
80320;SDS011;69633;47.066;15.450;2023-05-07T07:57:23;4.13;;;2.63;;
80320;SDS011;69633;47.066;15.450;2023-05-07T07:59:49;4.93;;;2.80;;
80320;SDS011;69633;47.066;15.450;2023-05-07T08:02:15;7.82;;;3.20;;
80320;SDS011;69633;47.066;15.450;2023-05-07T08:04:40;5.25;;;3.38;;
80320;SDS011;69633;47.066;15.450;2023-05-07T08:07:08;5.28;;;3.10;;
80320;SDS011;69633;47.066;15.450;2023-05-07T08:09:37;5.03;;;3.55;;
80320;SDS011;69633;47.066;15.450;2023-05-07T08:12:03;8.88;;;3.35;;
80320;SDS011;69633;47.066;15.450;2023-05-07T08:14:30;5.07;;;3.20;;
80320;SDS011;69633;47.066;15.450;2023-05-07T08:16:55;5.63;;;3.35;;
80320;SDS011;69633;47.066;15.450;2023-05-07T08:19:20;4.88;;;3.35;;
80320;SDS011;69633;47.066;15.450;2023-05-07T08:21:46;4.60;;;3.50;;
80320;SDS011;69633;47.066;15.450;2023-05-07T08:24:13;4.20;;;3.28;;
80320;SDS011;69633;47.066;15.450;2023-05-07T08:26:43;5.07;;;3.35;;
80320;SDS011;69633;47.066;15.450;2023-05-07T08:29:09;8.25;;;3.30;;
80320;SDS011;69633;47.066;15.450;2023-05-07T08:31:35;6.28;;;3.08;;
80320;SDS011;69633;47.066;15.450;2023-05-07T08:34:00;7.03;;;3.58;;
80320;SDS011;69633;47.066;15.450;2023-05-07T08:36:26;5.72;;;2.88;;
80320;SDS011;69633;47.066;15.450;2023-05-07T08:38:51;3.90;;;2.97;;
80320;SDS011;69633;47.066;15.450;2023-05-07T08:41:17;4.43;;;3.10;;
80320;SDS011;69633;47.066;15.450;2023-05-07T08:43:45;5.72;;;3.03;;
80320;SDS011;69633;47.066;15.450;2023-05-07T08:46:15;3.35;;;2.70;;
80320;SDS011;69633;47.066;15.450;2023-05-07T08:48:43;5.00;;;2.88;;
80320;SDS011;69633;47.066;15.450;2023-05-07T08:51:12;5.68;;;2.90;;
80320;SDS011;69633;47.066;15.450;2023-05-07T08:53:40;4.65;;;2.90;;
80320;SDS011;69633;47.066;15.450;2023-05-07T08:56:07;4.43;;;2.88;;
80320;SDS011;69633;47.066;15.450;2023-05-07T08:58:33;4.25;;;3.10;;
80320;SDS011;69633;47.066;15.450;2023-05-07T09:00:59;9.10;;;3.05;;
80320;SDS011;69633;47.066;15.450;2023-05-07T09:03:28;9.90;;;3.22;;
80320;SDS011;69633;47.066;15.450;2023-05-07T09:05:55;6.38;;;3.35;;
80320;SDS011;69633;47.066;15.450;2023-05-07T09:08:24;4.25;;;2.72;;
80320;SDS011;69633;47.066;15.450;2023-05-07T09:10:50;5.70;;;3.00;;
80320;SDS011;69633;47.066;15.450;2023-05-07T09:13:15;4.28;;;3.03;;
80320;SDS011;69633;47.066;15.450;2023-05-07T09:15:43;4.93;;;2.95;;
80320;SDS011;69633;47.066;15.450;2023-05-07T09:18:08;4.72;;;2.92;;
80320;SDS011;69633;47.066;15.450;2023-05-07T09:20:34;3.75;;;2.55;;
80320;SDS011;69633;47.066;15.450;2023-05-07T09:23:02;6.40;;;2.67;;
80320;SDS011;69633;47.066;15.450;2023-05-07T09:25:28;4.97;;;3.05;;
80320;SDS011;69633;47.066;15.450;2023-05-07T09:27:55;6.82;;;3.30;;
80320;SDS011;69633;47.066;15.450;2023-05-07T09:30:20;4.30;;;2.95;;
80320;SDS011;69633;47.066;15.450;2023-05-07T09:32:45;4.90;;;2.90;;
80320;SDS011;69633;47.066;15.450;2023-05-07T09:35:14;6.75;;;3.38;;
80320;SDS011;69633;47.066;15.450;2023-05-07T09:37:41;4.38;;;2.67;;
80320;SDS011;69633;47.066;15.450;2023-05-07T09:40:07;4.78;;;2.90;;
80320;SDS011;69633;47.066;15.450;2023-05-07T09:42:45;6.05;;;2.80;;
80320;SDS011;69633;47.066;15.450;2023-05-07T09:45:12;3.63;;;2.60;;
80320;SDS011;69633;47.066;15.450;2023-05-07T09:47:38;4.40;;;2.90;;
80320;SDS011;69633;47.066;15.450;2023-05-07T09:50:09;4.20;;;3.15;;
80320;SDS011;69633;47.066;15.450;2023-05-07T09:52:35;4.47;;;3.22;;
80320;SDS011;69633;47.066;15.450;2023-05-07T09:55:01;4.53;;;2.65;;
80320;SDS011;69633;47.066;15.450;2023-05-07T09:57:27;4.53;;;3.00;;
80320;SDS011;69633;47.066;15.450;2023-05-07T09:59:56;3.80;;;2.65;;
80320;SDS011;69633;47.066;15.450;2023-05-07T10:02:23;4.68;;;2.92;;
80320;SDS011;69633;47.066;15.450;2023-05-07T10:04:50;5.07;;;2.63;;
80320;SDS011;69633;47.066;15.450;2023-05-07T10:07:16;5.53;;;2.47;;
80320;SDS011;69633;47.066;15.450;2023-05-07T10:09:42;6.45;;;2.85;;
80320;SDS011;69633;47.066;15.450;2023-05-07T10:12:09;3.83;;;2.85;;
80320;SDS011;69633;47.066;15.450;2023-05-07T10:14:35;4.22;;;2.90;;
80320;SDS011;69633;47.066;15.450;2023-05-07T10:17:02;5.55;;;2.42;;
80320;SDS011;69633;47.066;15.450;2023-05-07T10:19:28;6.60;;;2.78;;
80320;SDS011;69633;47.066;15.450;2023-05-07T10:21:55;6.30;;;3.00;;
80320;SDS011;69633;47.066;15.450;2023-05-07T10:24:33;3.92;;;2.78;;
80320;SDS011;69633;47.066;15.450;2023-05-07T10:27:01;5.63;;;2.65;;
80320;SDS011;69633;47.066;15.450;2023-05-07T10:34:48;5.30;;;2.53;;
80320;SDS011;69633;47.066;15.450;2023-05-07T10:37:18;3.92;;;2.53;;
80320;SDS011;69633;47.066;15.450;2023-05-07T10:39:44;2.67;;;2.15;;
80320;SDS011;69633;47.066;15.450;2023-05-07T10:42:10;3.72;;;2.08;;
80320;SDS011;69633;47.066;15.450;2023-05-07T10:44:37;3.15;;;2.53;;
80320;SDS011;69633;47.066;15.450;2023-05-07T10:47:03;4.38;;;2.33;;
80320;SDS011;69633;47.066;15.450;2023-05-07T10:49:31;3.40;;;2.25;;
80320;SDS011;69633;47.066;15.450;2023-05-07T10:54:41;3.25;;;2.35;;
80320;SDS011;69633;47.066;15.450;2023-05-07T11:00:01;3.20;;;2.38;;
80320;SDS011;69633;47.066;15.450;2023-05-07T11:05:32;3.53;;;2.60;;
80320;SDS011;69633;47.066;15.450;2023-05-07T11:08:01;3.45;;;2.22;;
80320;SDS011;69633;47.066;15.450;2023-05-07T11:13:16;3.30;;;2.03;;
80320;SDS011;69633;47.066;15.450;2023-05-07T11:15:46;2.72;;;1.98;;
80320;SDS011;69633;47.066;15.450;2023-05-07T11:18:16;4.65;;;2.40;;
80320;SDS011;69633;47.066;15.450;2023-05-07T11:26:02;3.40;;;2.40;;
80320;SDS011;69633;47.066;15.450;2023-05-07T11:28:29;5.93;;;2.30;;
80320;SDS011;69633;47.066;15.450;2023-05-07T11:30:56;3.75;;;2.20;;
80320;SDS011;69633;47.066;15.450;2023-05-07T11:33:22;4.30;;;1.75;;
80320;SDS011;69633;47.066;15.450;2023-05-07T11:35:50;5.63;;;2.55;;
80320;SDS011;69633;47.066;15.450;2023-05-07T11:38:18;3.80;;;2.20;;
80320;SDS011;69633;47.066;15.450;2023-05-07T11:43:16;3.53;;;2.20;;
80320;SDS011;69633;47.066;15.450;2023-05-07T11:45:42;4.20;;;2.30;;
80320;SDS011;69633;47.066;15.450;2023-05-07T11:48:07;3.85;;;2.28;;
80320;SDS011;69633;47.066;15.450;2023-05-07T11:50:32;3.72;;;2.10;;
80320;SDS011;69633;47.066;15.450;2023-05-07T11:52:58;3.03;;;1.80;;
80320;SDS011;69633;47.066;15.450;2023-05-07T11:55:24;2.80;;;2.15;;
80320;SDS011;69633;47.066;15.450;2023-05-07T11:57:51;4.50;;;2.38;;
80320;SDS011;69633;47.066;15.450;2023-05-07T12:00:16;2.95;;;1.98;;
80320;SDS011;69633;47.066;15.450;2023-05-07T12:02:43;3.50;;;2.28;;
80320;SDS011;69633;47.066;15.450;2023-05-07T12:05:10;3.35;;;2.10;;
80320;SDS011;69633;47.066;15.450;2023-05-07T12:07:35;3.08;;;2.05;;
80320;SDS011;69633;47.066;15.450;2023-05-07T12:10:04;3.00;;;2.15;;
80320;SDS011;69633;47.066;15.450;2023-05-07T12:14:56;2.60;;;1.97;;
80320;SDS011;69633;47.066;15.450;2023-05-07T12:17:21;3.47;;;2.22;;
80320;SDS011;69633;47.066;15.450;2023-05-07T12:19:47;4.05;;;2.53;;
80320;SDS011;69633;47.066;15.450;2023-05-07T12:22:13;3.83;;;2.08;;
80320;SDS011;69633;47.066;15.450;2023-05-07T12:24:48;5.65;;;2.30;;
80320;SDS011;69633;47.066;15.450;2023-05-07T12:29:46;2.77;;;1.90;;
80320;SDS011;69633;47.066;15.450;2023-05-07T12:32:15;3.03;;;2.17;;
80320;SDS011;69633;47.066;15.450;2023-05-07T12:34:42;3.33;;;2.05;;
80320;SDS011;69633;47.066;15.450;2023-05-07T12:37:08;2.97;;;2.05;;
80320;SDS011;69633;47.066;15.450;2023-05-07T12:39:33;3.58;;;2.00;;
80320;SDS011;69633;47.066;15.450;2023-05-07T12:41:59;3.97;;;2.17;;
80320;SDS011;69633;47.066;15.450;2023-05-07T12:44:25;3.13;;;2.22;;
80320;SDS011;69633;47.066;15.450;2023-05-07T12:49:20;3.90;;;2.20;;
80320;SDS011;69633;47.066;15.450;2023-05-07T12:51:49;6.95;;;2.35;;
80320;SDS011;69633;47.066;15.450;2023-05-07T12:54:33;4.07;;;2.47;;
80320;SDS011;69633;47.066;15.450;2023-05-07T12:57:06;4.13;;;2.17;;
80320;SDS011;69633;47.066;15.450;2023-05-07T12:59:39;2.75;;;2.10;;
80320;SDS011;69633;47.066;15.450;2023-05-07T13:02:06;2.97;;;2.10;;
80320;SDS011;69633;47.066;15.450;2023-05-07T13:04:32;3.85;;;2.20;;
80320;SDS011;69633;47.066;15.450;2023-05-07T13:06:58;4.90;;;2.33;;
80320;SDS011;69633;47.066;15.450;2023-05-07T13:09:25;3.28;;;2.30;;
80320;SDS011;69633;47.066;15.450;2023-05-07T13:11:50;10.68;;;3.17;;
80320;SDS011;69633;47.066;15.450;2023-05-07T13:14:16;8.57;;;2.85;;
80320;SDS011;69633;47.066;15.450;2023-05-07T13:16:41;4.63;;;2.55;;
80320;SDS011;69633;47.066;15.450;2023-05-07T13:19:07;4.15;;;2.20;;
80320;SDS011;69633;47.066;15.450;2023-05-07T13:21:32;6.53;;;3.03;;
80320;SDS011;69633;47.066;15.450;2023-05-07T13:23:58;6.30;;;2.50;;
80320;SDS011;69633;47.066;15.450;2023-05-07T13:26:23;4.65;;;2.40;;
80320;SDS011;69633;47.066;15.450;2023-05-07T13:28:50;4.95;;;2.25;;
80320;SDS011;69633;47.066;15.450;2023-05-07T13:31:16;4.68;;;2.33;;
80320;SDS011;69633;47.066;15.450;2023-05-07T13:33:42;7.10;;;3.10;;
80320;SDS011;69633;47.066;15.450;2023-05-07T13:36:08;5.45;;;3.42;;
80320;SDS011;69633;47.066;15.450;2023-05-07T13:38:34;6.32;;;3.45;;
80320;SDS011;69633;47.066;15.450;2023-05-07T13:41:00;5.93;;;3.63;;
80320;SDS011;69633;47.066;15.450;2023-05-07T13:43:25;7.97;;;3.65;;
80320;SDS011;69633;47.066;15.450;2023-05-07T13:45:51;8.20;;;4.28;;
80320;SDS011;69633;47.066;15.450;2023-05-07T13:48:16;7.97;;;4.30;;
80320;SDS011;69633;47.066;15.450;2023-05-07T13:50:42;7.53;;;4.68;;
80320;SDS011;69633;47.066;15.450;2023-05-07T13:53:07;8.90;;;4.63;;
80320;SDS011;69633;47.066;15.450;2023-05-07T13:55:33;6.32;;;4.78;;
80320;SDS011;69633;47.066;15.450;2023-05-07T13:57:59;8.65;;;5.30;;
80320;SDS011;69633;47.066;15.450;2023-05-07T14:00:26;8.27;;;5.78;;
80320;SDS011;69633;47.066;15.450;2023-05-07T14:02:53;7.93;;;5.63;;
80320;SDS011;69633;47.066;15.450;2023-05-07T14:05:19;8.57;;;5.53;;
80320;SDS011;69633;47.066;15.450;2023-05-07T14:07:44;10.40;;;5.57;;
80320;SDS011;69633;47.066;15.450;2023-05-07T14:10:10;8.43;;;5.57;;
80320;SDS011;69633;47.066;15.450;2023-05-07T14:12:36;9.63;;;5.63;;
80320;SDS011;69633;47.066;15.450;2023-05-07T14:15:02;8.65;;;5.40;;
80320;SDS011;69633;47.066;15.450;2023-05-07T14:17:27;9.02;;;5.75;;
80320;SDS011;69633;47.066;15.450;2023-05-07T14:19:53;11.60;;;6.38;;
80320;SDS011;69633;47.066;15.450;2023-05-07T14:22:22;9.75;;;6.10;;
80320;SDS011;69633;47.066;15.450;2023-05-07T14:24:48;10.13;;;6.10;;
80320;SDS011;69633;47.066;15.450;2023-05-07T14:27:15;11.35;;;6.18;;
80320;SDS011;69633;47.066;15.450;2023-05-07T14:29:40;8.75;;;5.90;;
80320;SDS011;69633;47.066;15.450;2023-05-07T14:32:06;9.90;;;6.40;;
80320;SDS011;69633;47.066;15.450;2023-05-07T14:34:31;9.20;;;5.60;;
80320;SDS011;69633;47.066;15.450;2023-05-07T14:36:57;9.13;;;5.32;;
80320;SDS011;69633;47.066;15.450;2023-05-07T14:39:24;8.15;;;5.28;;
80320;SDS011;69633;47.066;15.450;2023-05-07T14:41:50;8.40;;;4.90;;
80320;SDS011;69633;47.066;15.450;2023-05-07T14:44:15;8.43;;;5.65;;
80320;SDS011;69633;47.066;15.450;2023-05-07T14:46:41;6.93;;;4.88;;
80320;SDS011;69633;47.066;15.450;2023-05-07T14:49:06;10.05;;;5.15;;
80320;SDS011;69633;47.066;15.450;2023-05-07T14:51:33;7.45;;;5.22;;
80320;SDS011;69633;47.066;15.450;2023-05-07T14:53:59;8.95;;;5.35;;
80320;SDS011;69633;47.066;15.450;2023-05-07T14:56:25;6.55;;;4.75;;
80320;SDS011;69633;47.066;15.450;2023-05-07T14:58:50;8.73;;;5.00;;
80320;SDS011;69633;47.066;15.450;2023-05-07T15:01:16;7.53;;;5.20;;